Time;durP1;ratioP1;P1;durP2;ratioP2;P2;SDS_P1;SDS_P2;PMS_P1;PMS_P2;Temp;Humidity;BMP_temperature;BMP_pressure;BME280_temperature;BME280_humidity;BME280_pressure;Samples;Min_cycle;Max_cycle;Signal;HPM_P1;HPM_P2
2022/06/15 04:08:44;;;;;;;;;;;;;;;;;;;;;
2022/06/15 04:10:17;;;;;;;;;;;;;;;6.02;87.54;99631.69;6211318;22;19919;-90
2022/06/15 04:12:45;;;;;;;;;;;;;;;5.91;87.25;99631.91;6272634;22;19911;-89
2022/06/15 04:15:37;;;;;;;;;;;;;;;6.07;87.56;99633.25;6277032;22;19915;-93
2022/06/15 04:24:51;;;;;;;;;;;;;;;5.99;86.92;99641.34;6164945;22;19924;-92
2022/06/15 04:27:32;;;;;;;;;;;;;;;;;;;;;
2022/06/15 04:33:00;;;;;;;;;;;;;;;6.08;87.97;99642.88;6151724;23;19976;-91
2022/06/15 04:35:52;;;;;;;;;;;;;;;6.13;88.32;99640.13;6266503;22;19915;-91
2022/06/15 04:38:50;;;;;;;;;;;;;;;;;;;;;
2022/06/15 04:47:24;;;;;;;;;;;;;;;6.14;88.97;99641.84;6175567;23;19944;-94
2022/06/15 04:49:49;;;;;;;;;;;;;;;6.08;89.21;99636.75;6224219;22;19914;-91
2022/06/15 04:52:14;;;;;;;;;;;;;;;6.02;89.25;99647.47;6276200;22;19950;-91
2022/06/15 04:54:40;;;;;;;;;;;;;;;6.06;89.25;99642.06;6248734;22;19994;-92
2022/06/15 04:57:05;;;;;;;;;;;;;;;6.00;89.38;99647.50;6248930;22;19915;-91
2022/06/15 08:13:39;;;;;;;;;;;;;;;6.10;89.12;99674.41;6107109;23;20314;-91
2022/06/15 08:16:38;;;;;;;;;;;;;;;6.08;88.81;99679.72;6246967;22;19922;-93
2022/06/15 08:19:03;;;;;;;;;;;;;;;6.13;89.03;99669.09;6204505;22;19943;-88
2022/06/15 08:22:13;;;;;;;;;;;;;;;6.04;89.00;99666.69;6247888;22;19923;-91
2022/06/15 08:24:57;;;;;;;;;;;;;;;;;;;;;
2022/06/15 08:27:42;;;;;;;;;;;;;;;;;;;;;
2022/06/15 08:36:30;;;;;;;;;;;;;;;6.25;89.03;99660.84;6212096;23;19912;-91
2022/06/15 08:50:04;;;;;;;;;;;;;;;6.19;89.81;99658.41;6181261;23;19951;-90
2022/06/15 08:52:42;;;;;;;;;;;;;;;6.21;90.32;99656.56;6180062;23;19923;-90
2022/06/15 08:55:45;;;;;;;;;;;;;;;6.26;90.16;99662.56;6229723;23;19918;-90
2022/06/15 08:58:17;;;;;;;;;;;;;;;6.16;90.26;99655.84;6245007;23;20373;-90
2022/06/15 09:04:11;;;;;;;;;;;;;;;6.28;90.06;99655.50;6237765;23;19916;-90
2022/06/15 09:06:50;;;;;;;;;;;;;;;6.20;90.15;99657.47;6243303;23;19994;-89
2022/06/15 09:09:44;;;;;;;;;;;;;;;6.32;90.50;99651.03;6245312;23;19919;-91
2022/06/15 09:12:59;;;;;;;;;;;;;;;6.34;90.20;99650.06;6243301;23;19912;-91
2022/06/15 09:15:31;;;;;;;;;;;;;;;6.35;90.00;99641.28;6229804;23;19916;-91
2022/06/15 09:18:07;;;;;;;;;;;;;;;6.38;90.11;99639.44;6242747;23;19911;-91
2022/06/15 09:20:53;;;;;;;;;;;;;;;6.40;90.16;99641.16;6217676;23;20354;-91
2022/06/15 09:23:26;;;;;;;;;;;;;;;6.48;90.40;99643.56;6215066;23;20321;-91
2022/06/15 09:26:05;;;;;;;;;;;;;;;6.31;90.62;99647.50;6245847;23;19915;-90
2022/06/15 09:28:47;;;;;;;;;;;;;;;6.41;90.78;99655.16;6218192;23;20329;-92
2022/06/15 09:31:40;;;;;;;;;;;;;;;6.44;90.60;99649.81;6218040;23;19981;-91
2022/06/15 09:34:11;;;;;;;;;;;;;;;6.40;90.55;99642.91;6165882;23;19912;-93
2022/06/15 09:36:43;;;;;;;;;;;;;;;6.59;91.27;99649.38;6244034;23;20065;-90
2022/06/15 09:39:09;;;;;;;;;;;;;;;6.47;90.55;99650.59;6244784;23;19920;-92
2022/06/15 09:41:55;;;;;;;;;;;;;;;6.49;90.77;99648.78;6219155;23;19916;-94
2022/06/15 09:44:52;;;;;;;;;;;;;;;;;;;;;
2022/06/15 09:47:36;;;;;;;;;;;;;;;6.58;90.94;99649.44;6244640;23;19987;-92
2022/06/15 09:50:13;;;;;;;;;;;;;;;6.53;91.19;99646.94;6242461;23;20403;-90
2022/06/15 09:56:00;;;;;;;;;;;;;;;6.93;92.74;99651.03;6263392;22;19942;-92
2022/06/15 09:59:06;;;;;;;;;;;;;;;7.48;96.30;99656.34;6299426;22;19915;-91
2022/06/15 10:01:54;;;;;;;;;;;;;;;7.65;98.26;99647.88;6273014;22;19915;-92
2022/06/15 10:04:46;;;;;;;;;;;;;;;7.11;95.56;99644.31;6233675;22;19922;-91
2022/06/15 10:07:18;;;;;;;;;;;;;;;6.93;93.68;99637.00;6226424;22;19911;-90
2022/06/15 10:10:23;;;;;;;;;;;;;;;;;;;;;
2022/06/15 10:22:25;;;;;;;;;;;;;;;;;;;;;
2022/06/15 10:25:14;;;;;;;;;;;;;;;7.09;93.89;99644.38;6297539;22;19990;-92
2022/06/15 10:27:55;;;;;;;;;;;;;;;;;;;;;
2022/06/15 10:30:59;;;;;;;;;;;;;;;7.99;98.69;99637.06;6306195;22;19986;-92
2022/06/15 10:34:04;;;;;;;;;;;;;;;7.78;98.33;99638.63;6242898;22;19964;-92
2022/06/15 10:39:39;;;;;;;;;;;;;;;8.05;98.08;99638.63;6289281;22;19922;-92
2022/06/15 10:42:50;;;;;;;;;;;;;;;;;;;;;
2022/06/15 10:53:27;;;;;;;;;;;;;;;7.98;96.53;99629.19;6243243;22;19926;-91
2022/06/15 11:02:31;;;;;;;;;;;;;;;;;;;;;
2022/06/15 11:05:35;;;;;;;;;;;;;;;;;;;;;
2022/06/15 11:08:31;;;;;;;;;;;;;;;8.53;99.19;99611.38;6095473;23;19965;-96
2022/06/15 11:11:43;;;;;;;;;;;;;;;;;;;;;
2022/06/15 11:28:45;;;;;;;;;;;;;;;8.76;100.00;99601.75;6246297;23;20361;-92
2022/06/15 11:34:21;;;;;;;;;;;;;;;8.41;97.67;99600.38;6246264;23;19924;-93
2022/06/15 12:09:46;;;;;;;;;;;;;;;8.55;96.71;99579.63;6303718;22;19940;-91
2022/06/15 12:24:23;;;;;;;;;;;;;;;9.23;99.64;99569.94;6265722;22;20018;-93
2022/06/15 12:29:43;;;;;;;;;;;;;;;9.07;98.39;99568.84;6246175;23;19924;-92
2022/06/15 12:35:12;;;;;;;;;;;;;;;8.75;97.33;99568.31;6245678;23;19954;-91
2022/06/15 12:37:55;;;;;;;;;;;;;;;;;;;;;
2022/06/15 12:40:35;;;;;;;;;;;;;;;9.25;99.52;99568.09;6244928;23;20292;-91
2022/06/15 12:43:49;;;;;;;;;;;;;;;8.66;96.80;99561.63;6218538;23;19954;-90
2022/06/15 12:46:26;;;;;;;;;;;;;;;9.01;98.64;99567.28;6193339;23;19938;-92
2022/06/15 12:49:18;;;;;;;;;;;;;;;9.36;99.51;99564.16;6243153;23;19920;-90
2022/06/15 12:52:04;;;;;;;;;;;;;;;8.71;96.65;99570.22;6241764;23;19958;-90
2022/06/15 12:54:52;;;;;;;;;;;;;;;9.13;97.91;99573.88;6243402;23;19919;-91
2022/06/15 12:57:21;;;;;;;;;;;;;;;9.35;99.17;99571.22;6252711;22;19912;-91
2022/06/15 12:59:57;;;;;;;;;;;;;;;8.88;96.19;99569.56;6242546;23;20316;-91
2022/06/15 13:02:34;;;;;;;;;;;;;;;9.17;97.75;99570.19;6243496;23;19990;-90
2022/06/15 13:05:05;;;;;;;;;;;;;;;9.37;98.90;99561.44;6242655;23;20306;-91
2022/06/15 13:07:33;;;;;;;;;;;;;;;8.83;96.58;99568.03;6242868;23;19919;-92
2022/06/15 13:10:34;;;;;;;;;;;;;;;9.09;97.86;99564.34;6245195;23;19981;-91
2022/06/15 13:13:13;;;;;;;;;;;;;;;;;;;;;
2022/06/15 13:15:54;;;;;;;;;;;;;;;8.81;96.39;99556.66;6245317;23;20288;-92
2022/06/15 13:18:36;;;;;;;;;;;;;;;9.12;97.65;99552.78;6244026;23;19908;-92
2022/06/15 13:21:05;;;;;;;;;;;;;;;9.37;98.59;99555.31;6243576;23;19998;-91
2022/06/15 13:23:39;;;;;;;;;;;;;;;8.81;96.05;99561.97;6241831;23;19920;-92
2022/06/15 13:26:08;;;;;;;;;;;;;;;9.19;97.22;99556.91;6244737;23;19912;-90
2022/06/15 13:28:38;;;;;;;;;;;;;;;9.35;98.16;99551.84;6265683;22;19919;-90
2022/06/15 13:31:10;;;;;;;;;;;;;;;8.99;96.48;99544.50;6275246;22;19911;-90
2022/06/15 13:33:48;;;;;;;;;;;;;;;9.09;96.51;99545.84;6247992;22;19911;-90
2022/06/15 13:36:25;;;;;;;;;;;;;;;9.42;97.54;99559.47;6275574;22;19918;-89
2022/06/15 13:38:59;;;;;;;;;;;;;;;9.03;96.46;99557.53;6273895;22;19927;-90
2022/06/15 13:41:28;;;;;;;;;;;;;;;9.07;96.62;99552.97;6248456;22;20398;-90
2022/06/15 13:43:58;;;;;;;;;;;;;;;9.39;98.22;99564.03;6275940;22;19915;-90
2022/06/15 13:46:26;;;;;;;;;;;;;;;9.27;96.96;99560.13;6247987;22;19922;-90
2022/06/15 13:54:22;;;;;;;;;;;;;;;9.20;97.09;99548.91;6282880;22;19915;-90
2022/06/15 14:05:24;;;;;;;;;;;;;;;9.21;96.79;99544.50;6295536;22;19925;-91
2022/06/15 14:08:09;;;;;;;;;;;;;;;9.54;98.43;99538.69;6278995;22;19915;-90
2022/06/15 14:10:47;;;;;;;;;;;;;;;9.05;96.75;99539.81;6280612;22;20219;-92
2022/06/15 14:13:15;;;;;;;;;;;;;;;9.31;97.12;99539.69;6280819;22;19915;-90
2022/06/15 14:18:35;;;;;;;;;;;;;;;9.15;96.58;99529.72;6299753;22;19923;-91
2022/06/15 14:21:16;;;;;;;;;;;;;;;9.23;96.75;99532.06;6280738;22;19950;-90
2022/06/15 14:23:46;;;;;;;;;;;;;;;9.48;98.15;99523.97;6279230;22;19933;-90
2022/06/15 14:26:23;;;;;;;;;;;;;;;9.29;96.82;99530.97;6280895;22;19911;-92
2022/06/15 14:29:12;;;;;;;;;;;;;;;9.12;96.23;99529.00;6308062;22;19915;-91
2022/06/15 14:31:46;;;;;;;;;;;;;;;9.49;97.96;99525.66;6308517;22;19914;-91
2022/06/15 14:34:22;;;;;;;;;;;;;;;9.44;97.40;99533.84;6243155;23;20336;-92
2022/06/15 14:36:54;;;;;;;;;;;;;;;9.32;96.60;99530.81;6241881;23;19921;-92
2022/06/15 14:39:24;;;;;;;;;;;;;;;9.61;97.97;99530.44;6243202;23;19995;-91
2022/06/15 14:42:18;;;;;;;;;;;;;;;9.40;97.90;99528.72;6243613;23;20449;-91
2022/06/15 14:44:47;;;;;;;;;;;;;;;9.25;97.22;99533.75;6243869;23;19935;-92
2022/06/15 14:47:56;;;;;;;;;;;;;;;9.61;97.97;99525.16;6243371;23;19919;-92
2022/06/15 14:50:29;;;;;;;;;;;;;;;9.22;96.30;99522.41;6242826;23;19919;-91
2022/06/15 14:52:54;;;;;;;;;;;;;;;9.34;96.99;99524.53;6241688;23;19912;-90
2022/06/15 14:55:25;;;;;;;;;;;;;;;13.10;88.08;99518.44;6244211;23;19922;-89
2022/06/15 14:57:50;;;;;;;;;;;;;;;10.98;93.05;99523.38;6243388;23;19919;-90
2022/06/15 15:00:31;;;;;;;;;;;;;;;10.16;96.05;99528.94;6243279;23;20454;-89
2022/06/15 15:05:49;;;;;;;;;;;;;;;9.79;96.98;99525.28;6289611;22;19929;-89
2022/06/15 15:08:16;;;;;;;;;;;;;;;9.85;97.62;99514.44;6306041;22;20263;-89
2022/06/15 15:10:45;;;;;;;;;;;;;;;10.02;98.91;99519.00;6279940;22;19965;-88
2022/06/15 15:13:16;;;;;;;;;;;;;;;9.78;97.43;99518.25;6307537;22;20361;-89
2022/06/15 15:15:43;;;;;;;;;;;;;;;9.69;97.71;99518.69;6306009;22;19914;-91
2022/06/15 15:18:10;;;;;;;;;;;;;;;9.88;99.36;99519.59;6307098;22;19915;-89
2022/06/15 15:20:37;;;;;;;;;;;;;;;9.91;99.33;99523.91;6307545;22;19911;-89
2022/06/15 15:23:03;;;;;;;;;;;;;;;9.64;97.74;99516.25;6278373;22;19915;-89
2022/06/15 15:25:53;;;;;;;;;;;;;;;9.80;99.56;99511.13;6307532;22;19918;-89
2022/06/15 15:34:08;;;;;;;;;;;;;;;9.84;99.49;99511.84;6306192;22;20055;-91
2022/06/15 15:39:55;;;;;;;;;;;;;;;9.67;98.96;99513.47;6254057;22;19922;-89
2022/06/15 15:42:24;;;;;;;;;;;;;;;9.76;100.00;99509.53;6306885;22;19915;-88
2022/06/15 15:44:50;;;;;;;;;;;;;;;9.69;98.89;99508.09;6306657;22;19921;-89
2022/06/15 15:47:19;;;;;;;;;;;;;;;9.58;98.05;99501.47;6306360;22;19942;-88
2022/06/15 15:49:45;;;;;;;;;;;;;;;9.81;99.59;99503.13;6306901;22;19946;-90
2022/06/15 15:52:12;;;;;;;;;;;;;;;9.95;99.88;99491.06;6305320;22;19911;-89
2022/06/15 15:54:37;;;;;;;;;;;;;;;9.59;97.81;99500.56;6277802;22;19997;-89
2022/06/15 15:57:04;;;;;;;;;;;;;;;9.76;99.18;99494.50;6306283;22;19954;-89
2022/06/15 15:59:36;;;;;;;;;;;;;;;9.89;100.00;99494.84;6279146;22;19915;-89
2022/06/15 16:02:02;;;;;;;;;;;;;;;9.52;97.56;99485.03;6279652;22;19954;-89
2022/06/15 16:04:38;;;;;;;;;;;;;;;9.80;99.05;99490.81;6305862;22;19990;-89
2022/06/15 16:07:09;;;;;;;;;;;;;;;9.90;99.79;99496.56;6277529;22;19914;-89
2022/06/15 16:12:45;;;;;;;;;;;;;;;9.82;99.10;99483.66;6280538;22;20307;-89
2022/06/15 16:15:12;;;;;;;;;;;;;;;9.95;100.00;99483.97;6279402;22;19998;-89
2022/06/15 16:17:38;;;;;;;;;;;;;;;9.57;97.49;99481.25;6278885;22;19926;-89
2022/06/15 16:20:29;;;;;;;;;;;;;;;9.86;98.73;99487.06;6306572;22;19954;-89
2022/06/15 16:22:55;;;;;;;;;;;;;;;9.99;100.00;99480.28;6277780;22;19914;-90
2022/06/15 16:25:22;;;;;;;;;;;;;;;9.58;97.78;99482.13;6278801;22;19915;-89
2022/06/15 16:27:48;;;;;;;;;;;;;;;9.69;98.97;99484.28;6305152;22;20619;-89
2022/06/15 16:30:16;;;;;;;;;;;;;;;9.93;100.00;99480.53;6305338;22;19914;-89
2022/06/15 16:33:13;;;;;;;;;;;;;;;9.61;98.44;99477.53;6275996;22;19910;-88
2022/06/15 16:35:39;;;;;;;;;;;;;;;9.74;98.71;99469.91;6306155;22;19960;-89
2022/06/15 16:38:06;;;;;;;;;;;;;;;9.89;100.00;99476.34;6305106;22;19998;-89
2022/06/15 16:40:31;;;;;;;;;;;;;;;9.63;98.73;99470.38;6305788;22;19911;-89
2022/06/15 16:43:02;;;;;;;;;;;;;;;9.70;98.99;99475.41;6305329;22;19915;-88
2022/06/15 16:45:33;;;;;;;;;;;;;;;9.97;100.00;99473.31;6277512;22;19918;-90
2022/06/15 16:48:17;;;;;;;;;;;;;;;9.71;98.92;99469.19;6278770;22;19911;-89
2022/06/15 16:50:42;;;;;;;;;;;;;;;9.71;98.56;99472.69;6277270;22;20417;-89
2022/06/15 16:53:16;;;;;;;;;;;;;;;9.86;99.92;99473.81;6305265;22;19911;-90
2022/06/15 16:55:43;;;;;;;;;;;;;;;9.70;98.99;99478.06;6276280;22;19954;-89
2022/06/15 16:58:09;;;;;;;;;;;;;;;9.67;98.64;99480.84;6279037;22;20223;-89
2022/06/15 17:00:34;;;;;;;;;;;;;;;9.93;99.97;99475.25;6304320;22;19911;-90
2022/06/15 17:03:41;;;;;;;;;;;;;;;9.95;100.00;99477.81;6277515;22;19968;-88
2022/06/15 17:06:17;;;;;;;;;;;;;;;9.92;98.39;99476.16;6301478;22;19914;-89
2022/06/15 17:09:19;;;;;;;;;;;;;;;9.98;99.67;99473.25;6305123;22;19911;-89
2022/06/15 17:14:44;;;;;;;;;;;;;;;9.84;98.76;99477.47;6289177;22;19965;-89
2022/06/15 17:17:11;;;;;;;;;;;;;;;9.97;100.00;99466.25;6278144;22;19998;-89
2022/06/15 17:19:36;;;;;;;;;;;;;;;9.79;98.39;99472.38;6305879;22;19956;-89
2022/06/15 17:22:04;;;;;;;;;;;;;;;9.78;98.74;99470.63;6304540;22;19915;-89
2022/06/15 17:24:30;;;;;;;;;;;;;;;9.96;100.00;99463.69;6278091;22;19926;-88
2022/06/15 17:26:56;;;;;;;;;;;;;;;9.81;99.62;99474.03;6277890;22;19910;-88
2022/06/15 17:29:26;;;;;;;;;;;;;;;9.76;99.05;99469.84;6278998;22;19918;-89
2022/06/15 17:31:55;;;;;;;;;;;;;;;10.06;100.00;99466.75;6266070;22;20331;-89
2022/06/15 17:34:21;;;;;;;;;;;;;;;10.03;100.00;99469.53;6246650;22;19915;-90
2022/06/15 17:36:49;;;;;;;;;;;;;;;9.78;98.39;99470.63;6244767;22;20012;-89
2022/06/15 17:39:15;;;;;;;;;;;;;;;9.95;99.69;99465.44;6246484;22;19953;-89
2022/06/15 17:41:54;;;;;;;;;;;;;;;;;;;;;
2022/06/15 17:45:13;;;;;;;;;;;;;;;9.66;98.37;99469.41;6273967;22;19998;-89
2022/06/15 17:47:49;;;;;;;;;;;;;;;9.98;100.00;99470.59;6152148;23;19944;-89
2022/06/15 17:50:20;;;;;;;;;;;;;;;9.89;100.00;99470.16;6169126;22;20295;-89
2022/06/15 17:52:45;;;;;;;;;;;;;;;9.76;99.58;99477.78;6246630;22;20331;-90
2022/06/15 17:55:22;;;;;;;;;;;;;;;10.05;100.00;99471.22;6248694;22;19915;-88
2022/06/15 17:57:48;;;;;;;;;;;;;;;10.00;100.00;99474.06;6248388;22;19950;-89
2022/06/15 18:00:37;;;;;;;;;;;;;;;9.77;98.92;99471.59;6285220;22;19926;-90
2022/06/15 18:06:21;;;;;;;;;;;;;;;9.89;99.45;99472.81;6307782;22;19914;-89
2022/06/15 18:08:47;;;;;;;;;;;;;;;9.82;99.02;99467.78;6306864;22;19911;-89
2022/06/15 18:11:13;;;;;;;;;;;;;;;10.04;100.00;99472.13;6281294;22;19915;-89
2022/06/15 18:13:51;;;;;;;;;;;;;;;;;;;;;
2022/06/15 18:16:27;;;;;;;;;;;;;;;9.80;98.24;99469.66;6308234;22;20282;-88
2022/06/15 18:19:05;;;;;;;;;;;;;;;10.13;99.89;99471.72;6308001;22;19918;-89
2022/06/15 18:21:32;;;;;;;;;;;;;;;10.12;100.00;99469.97;6306786;22;20033;-88
2022/06/15 18:23:58;;;;;;;;;;;;;;;9.78;98.24;99475.94;6306518;22;19976;-89
2022/06/15 18:26:23;;;;;;;;;;;;;;;10.07;99.76;99471.97;6306484;22;19919;-88
2022/06/15 18:28:51;;;;;;;;;;;;;;;10.14;100.00;99472.56;6307220;22;20319;-89
2022/06/15 18:31:17;;;;;;;;;;;;;;;9.84;98.62;99475.66;6307839;22;19922;-89
2022/06/15 18:33:46;;;;;;;;;;;;;;;10.06;99.57;99475.56;6279602;22;19918;-89
2022/06/15 18:36:22;;;;;;;;;;;;;;;10.14;100.00;99478.69;6280071;22;20022;-89
2022/06/15 18:38:50;;;;;;;;;;;;;;;9.90;98.85;99485.13;6279279;22;19915;-89
2022/06/15 18:41:19;;;;;;;;;;;;;;;9.98;99.52;99482.97;6307209;22;19915;-89
2022/06/15 18:49:18;;;;;;;;;;;;;;;9.96;100.00;99480.41;6306208;22;19994;-88
2022/06/15 18:51:46;;;;;;;;;;;;;;;10.20;100.00;99479.38;6303823;22;20339;-88
2022/06/15 18:54:15;;;;;;;;;;;;;;;10.11;100.00;99478.00;6305449;22;19954;-89
2022/06/15 18:57:10;;;;;;;;;;;;;;;;;;;;;
2022/06/15 18:59:54;;;;;;;;;;;;;;;10.24;100.00;99481.78;6294336;22;19974;-89
2022/06/15 19:02:30;;;;;;;;;;;;;;;;;;;;;
2022/06/15 19:04:59;;;;;;;;;;;;;;;10.12;100.00;99471.78;6306822;22;20389;-89
2022/06/15 19:07:25;;;;;;;;;;;;;;;10.32;100.00;99477.03;6302984;22;19956;-88
2022/06/15 19:09:51;;;;;;;;;;;;;;;10.34;100.00;99477.81;6307183;22;20380;-89
2022/06/15 19:12:26;;;;;;;;;;;;;;;9.97;99.64;99483.91;6306219;22;20388;-89
2022/06/15 19:14:51;;;;;;;;;;;;;;;10.16;100.00;99474.22;6279859;22;19915;-88
2022/06/15 19:20:07;;;;;;;;;;;;;;;9.96;99.90;99475.13;6307601;22;19986;-89
2022/06/15 19:22:33;;;;;;;;;;;;;;;10.13;100.00;99476.13;6305085;22;20220;-89
2022/06/15 19:25:03;;;;;;;;;;;;;;;10.42;100.00;99476.59;6306566;22;19915;-88
2022/06/15 19:27:32;;;;;;;;;;;;;;;9.88;99.07;99481.69;6304183;22;19963;-88
2022/06/15 19:29:58;;;;;;;;;;;;;;;10.15;100.00;99490.16;6305471;22;19915;-89
2022/06/15 19:32:34;;;;;;;;;;;;;;;10.32;100.00;99487.63;6307017;22;19918;-89
2022/06/15 19:38:36;;;;;;;;;;;;;;;10.21;100.00;99497.84;6214082;23;20357;-88
2022/06/15 19:41:34;;;;;;;;;;;;;;;10.29;100.00;99502.75;6242263;23;19919;-89
2022/06/15 19:44:13;;;;;;;;;;;;;;;9.87;100.00;99495.84;6181418;23;19928;-88
2022/06/15 19:46:43;;;;;;;;;;;;;;;10.23;100.00;99503.91;6241952;23;20320;-89
2022/06/15 19:49:08;;;;;;;;;;;;;;;10.40;100.00;99504.94;6248671;22;20335;-91
2022/06/15 19:51:34;;;;;;;;;;;;;;;9.88;99.83;99495.78;6306989;22;19918;-87
2022/06/15 19:54:00;;;;;;;;;;;;;;;10.19;100.00;99499.69;6303361;22;20285;-89
2022/06/15 19:56:43;;;;;;;;;;;;;;;10.47;100.00;99506.38;6306019;22;19918;-88
2022/06/15 19:59:08;;;;;;;;;;;;;;;9.93;100.00;99514.94;6279828;22;19984;-88
2022/06/15 20:01:37;;;;;;;;;;;;;;;10.20;100.00;99508.50;6306959;22;19915;-88
2022/06/15 20:04:10;;;;;;;;;;;;;;;10.44;100.00;99517.13;6278607;22;19911;-89
2022/06/15 20:06:35;;;;;;;;;;;;;;;9.73;99.68;99514.97;6304114;22;20227;-88
2022/06/15 20:09:07;;;;;;;;;;;;;;;9.98;100.00;99515.59;6304635;22;19919;-88
2022/06/15 20:11:50;;;;;;;;;;;;;;;10.31;100.00;99509.72;6278903;22;19921;-90
2022/06/15 20:14:18;;;;;;;;;;;;;;;10.11;100.00;99517.69;6306627;22;19911;-89
2022/06/15 20:16:45;;;;;;;;;;;;;;;9.99;99.73;99525.25;6278801;22;20037;-89
2022/06/15 20:19:12;;;;;;;;;;;;;;;10.31;100.00;99522.09;6306926;22;19907;-89
2022/06/15 20:21:40;;;;;;;;;;;;;;;10.16;100.00;99534.22;6304508;22;19933;-88
2022/06/15 20:24:08;;;;;;;;;;;;;;;9.80;99.42;99534.94;6279381;22;20001;-89
2022/06/15 20:26:59;;;;;;;;;;;;;;;10.12;100.00;99533.50;6305338;22;19907;-89
2022/06/15 20:29:28;;;;;;;;;;;;;;;10.41;100.00;99531.34;6261642;22;19922;-88
2022/06/15 20:31:54;;;;;;;;;;;;;;;9.75;99.13;99535.16;6304890;22;19911;-88
2022/06/15 20:34:19;;;;;;;;;;;;;;;10.09;100.00;99530.16;6306754;22;19918;-88
2022/06/15 20:37:10;;;;;;;;;;;;;;;10.40;100.00;99529.63;6305285;22;19918;-90
2022/06/15 20:39:55;;;;;;;;;;;;;;;9.82;99.84;99536.59;6263353;22;19997;-89
2022/06/15 20:42:27;;;;;;;;;;;;;;;9.96;99.86;99536.00;6277308;22;19947;-90
2022/06/15 20:44:55;;;;;;;;;;;;;;;10.17;100.00;99536.81;6304720;22;19911;-90
2022/06/15 20:47:36;;;;;;;;;;;;;;;;;;;;;
2022/06/15 20:50:35;;;;;;;;;;;;;;;9.75;98.83;99540.44;6305169;22;20001;-91
2022/06/15 21:05:02;;;;;;;;;;;;;;;10.39;100.00;99535.00;6276760;22;19923;-91
2022/06/15 21:30:34;;;;;;;;;;;;;;;;;;;;;
2022/06/15 21:58:27;;;;;;;;;;;;;;;;;;;;;
2022/06/15 22:00:55;;;;;;;;;;;;;;;9.61;99.11;99559.53;6306042;22;19993;-92
2022/06/15 22:03:21;;;;;;;;;;;;;;;9.36;96.39;99561.50;6278034;22;19910;-94
2022/06/15 22:05:46;;;;;;;;;;;;;;;9.08;95.57;99558.19;6277927;22;20257;-89
2022/06/15 22:08:21;;;;;;;;;;;;;;;9.05;94.90;99568.06;6303710;22;19911;-90
2022/06/15 22:10:46;;;;;;;;;;;;;;;9.41;96.61;99567.44;6305987;22;19971;-91
2022/06/15 22:13:14;;;;;;;;;;;;;;;9.70;100.00;99574.19;6279799;22;19942;-94
2022/06/15 22:15:39;;;;;;;;;;;;;;;9.94;100.00;99572.25;6242241;23;20005;-95
2022/06/15 22:18:04;;;;;;;;;;;;;;;9.51;98.40;99571.44;6241998;23;20363;-90
2022/06/15 22:20:30;;;;;;;;;;;;;;;9.22;95.65;99573.50;6240085;23;19915;-93
2022/06/15 22:22:55;;;;;;;;;;;;;;;9.08;94.21;99576.72;6239767;23;19911;-91
2022/06/15 22:25:22;;;;;;;;;;;;;;;9.01;93.76;99577.84;6214819;23;19908;-89
2022/06/15 22:27:47;;;;;;;;;;;;;;;8.96;93.34;99586.91;6241647;23;20367;-90
2022/06/15 22:30:14;;;;;;;;;;;;;;;8.91;93.19;99580.00;6241693;23;19934;-89
2022/06/15 22:32:43;;;;;;;;;;;;;;;8.90;92.67;99575.66;6241028;23;19915;-92
2022/06/15 22:35:09;;;;;;;;;;;;;;;8.73;92.85;99580.75;6243097;23;19919;-89
2022/06/15 22:37:41;;;;;;;;;;;;;;;8.70;92.90;99581.72;6240884;23;20247;-92
2022/06/15 22:40:11;;;;;;;;;;;;;;;8.87;92.53;99566.97;6263416;22;19919;-94
2022/06/15 22:42:45;;;;;;;;;;;;;;;8.79;92.04;99579.63;6308018;22;20333;-93
2022/06/15 22:45:10;;;;;;;;;;;;;;;8.82;91.79;99577.75;6280175;22;20311;-90
2022/06/15 22:47:36;;;;;;;;;;;;;;;8.72;91.85;99573.72;6308523;22;19915;-90
2022/06/15 22:52:45;;;;;;;;;;;;;;;8.67;92.13;99565.13;6305952;22;19957;-89
2022/06/15 22:55:11;;;;;;;;;;;;;;;8.78;91.92;99562.06;6307951;22;19911;-89
2022/06/15 22:57:37;;;;;;;;;;;;;;;8.71;91.45;99566.72;6306321;22;19919;-88
2022/06/15 23:00:04;;;;;;;;;;;;;;;8.61;91.78;99563.56;6308125;22;19918;-87
2022/06/15 23:02:29;;;;;;;;;;;;;;;8.57;92.28;99567.25;6307661;22;20242;-87
2022/06/15 23:04:58;;;;;;;;;;;;;;;8.59;92.27;99568.06;6309708;22;19998;-94
2022/06/15 23:07:23;;;;;;;;;;;;;;;8.49;92.61;99559.63;6308478;22;20245;-88
2022/06/15 23:09:48;;;;;;;;;;;;;;;8.53;92.83;99571.78;6308118;22;19946;-91
2022/06/15 23:12:13;;;;;;;;;;;;;;;8.59;92.74;99573.34;6307936;22;19993;-89
2022/06/15 23:14:39;;;;;;;;;;;;;;;8.63;92.45;99574.06;6307612;22;19911;-90
2022/06/15 23:17:04;;;;;;;;;;;;;;;8.59;92.08;99569.84;6308489;22;20317;-89
2022/06/15 23:19:29;;;;;;;;;;;;;;;8.59;91.60;99567.19;6308917;22;19918;-93
2022/06/15 23:21:55;;;;;;;;;;;;;;;8.48;91.13;99560.53;6279693;22;20400;-91
2022/06/15 23:24:20;;;;;;;;;;;;;;;8.46;91.18;99572.94;6308475;22;20315;-93
2022/06/15 23:26:45;;;;;;;;;;;;;;;8.57;91.17;99569.91;6308404;22;19918;-94
2022/06/15 23:29:12;;;;;;;;;;;;;;;8.49;91.25;99575.47;6309355;22;19942;-90
2022/06/15 23:31:38;;;;;;;;;;;;;;;8.43;91.14;99578.34;6287793;22;19914;-93
2022/06/15 23:34:03;;;;;;;;;;;;;;;8.45;91.14;99579.13;6284335;22;19911;-90
2022/06/15 23:36:29;;;;;;;;;;;;;;;8.46;91.21;99580.88;6310070;22;20283;-94
2022/06/15 23:38:54;;;;;;;;;;;;;;;8.51;90.77;99585.97;6278276;22;19993;-89
2022/06/15 23:42:06;;;;;;;;;;;;;;;8.30;90.69;99582.31;6306997;22;19934;-89
2022/06/15 23:44:07;;;;;;;;;;;;;;;8.39;91.05;99592.53;6286287;22;20227;-93
2022/06/15 23:49:16;;;;;;;;;;;;;;;8.39;90.93;99584.59;6306985;22;19965;-89
2022/06/15 23:51:41;;;;;;;;;;;;;;;8.37;90.75;99589.09;6305643;22;19915;-91
2022/06/15 23:54:07;;;;;;;;;;;;;;;8.35;90.53;99590.94;6280002;22;19922;-96
2022/06/15 23:56:33;;;;;;;;;;;;;;;8.29;90.27;99591.16;6309633;22;19969;-94
2022/06/15 23:58:58;;;;;;;;;;;;;;;8.36;90.36;99582.97;6283343;22;19922;-93
